USRRUNKL

Guest
Details From USRR - Surgut
To UNKL - Yemelyanovo
Flight Number -
Tags Generated
Created
Modified
Stats Distance 667 nm / 1,236 km
Max Altitude 0 ft / 0 m
Waypoints 3
Social Downloads 1
Likes 0
Share VATSIM

Download

Looking for another format? Having issues loading an existing format? Contact us
Advertisement - Login to hide

Notes

Generated

Route

USRR AJ UNKL

ID Type Via Altitude Latitude Longitude Leg Dist Tot Dist Heading (true) Name
O USRR APT - 0 ft / 0 m 61.34364˚ 73.37581˚ - 0 nm - -
AJ NDB - 0 ft / 0 m 56.19333˚ 92.40667˚ 665 nm 665 nm 109° / 126° KRASNOYARSK NDB
O UNKL APT - 0 ft / 0 m 56.17948˚ 92.46587˚ 2 nm 667 nm 113° / 113° -

Altitude Profile

Advertisement - Login to hide

Weather


0- 5 10 15 20 25 30 35+ Temperature / ° C

Clouds and Precipitation
Forecast for 2018-05-24 12:00 UTC. Updated an hour ago

Ground ~20,000 ft ~40,000 ft Winds

USRR

Details ICAO USRR (SGC)
Name SURGUT
Region Russia
Timezone Asia/Yekaterinburg (UTC+5.0)
Stats Elevation 200 ft / 61 m (AMSL)
Location 61.343693° 73.401842°
Runways 1
Magnetic Variation 17.121° E

METAR

USRR 241230Z 34007G12MPS CAVOK 05/03 Q1004 R25/250255 NOSIG RMK QFE747

Decode

TAF

TAF TAF USRR 241055Z 2412/2512 32007G13MPS 9999 SCT007 BKN020CB TEMPO 2412/2421 34012G18MPS 3100 -SHRA BKN005 BKN015CB BECMG 2500/2502 BKN015CB

Decode

Departure Runways

ID Width Length Bearing (true) Bearing (mag) Surface Threshold Offset Overrun Length
07 148 ft / 45 m 9,112 ft / 2,778 m 89.72° 72.60° Asphalt 0 ft / 0 m 165 ft / 50 m
25 148 ft / 45 m 9,112 ft / 2,778 m 269.76° 252.64° Asphalt 0 ft / 0 m 165 ft / 50 m

UNKL

Details ICAO UNKL (KJA)
Name YEMELYANOVO
Region Russia
Timezone Asia/Krasnoyarsk (UTC+7.0)
Stats Elevation 942 ft / 287 m (AMSL)
Location 56.172946° 92.493276°
Runways 1
Magnetic Variation 4.106° E

METAR

UNKL 241230Z 28006MPS 9999 SCT043CB 09/00 Q1013 R29/CLRD65 NOSIG RMK QFE734

Decode

TAF

TAF UNKL 241100Z 2412/2512 27005G12MPS 9000 -SHRA SCT020CB TEMPO 2412/2421 3100 -SHRA FEW006 BKN013CB FM242100 26003MPS 9999 SCT030 TEMPO 2421/2501 3100 BR FEW006 SCT020 BECMG 2501/2503 20005G12MPS

Decode

Destination Runways

ID Width Length Bearing (true) Bearing (mag) Surface Threshold Offset Overrun Length
11 197 ft / 60 m 12,113 ft / 3,692 m 113.16° 109.05° Asphalt 0 ft / 0 m 235 ft / 72 m
29 197 ft / 60 m 12,113 ft / 3,692 m 293.21° 289.10° Asphalt 0 ft / 0 m 215 ft / 66 m

Popular Alternatives